ΕΜΥ, Εθνική Μετεωρολογική Υπηρεσία - Δελτία Καιρού, Προγνώσεις

ΑΕΡΟΝΑΥΤΙΛΙΑ

GREEK AIRPORTS CODES

TAF LGIR 160500Z 1606/1706 17008KT 9999 FEW020 BECMG 1607/1609 31010KT=

EUROPEAN AIRPORTS CODES

LFPO 160930Z 19004KT 140V230 CAVOK 23/17 Q1009 NOSIG=